TAF and METAR

Decoding for American and Canadian METARs and TAFs is not fully implemented.

Could not understand the following METAR

CWSA 141500Z AUTO 27013G19KT 9SM CLR 03/M03 A3049 RMK SLP327

TAF for Sable Island

TAF CWSA 141338Z 1414/1501 29012G22KT P6SM SKC FM141800 28015G25KT P6SM SCT020 FM142200 26015G25KT P6SM BKN020 TEMPO 1422/1501 SCT020 RMK FCST BASED ON AUTO OBS. NXT FCST BY 142000Z
Report created 14. des 14:38

between 14. des 15:00 - 15. des 02:00

wind 12 knots from WNW (290°) with gusts up to 22 knots
Sable Island in Canada at 4m

Latest 5 airports